Time;durP1;ratioP1;P1;durP2;ratioP2;P2;SDS_P1;SDS_P2;PMS_P1;PMS_P2;Temp;Humidity;BMP_temperature;BMP_pressure;BME280_temperature;BME280_humidity;BME280_pressure;Samples;Min_cycle;Max_cycle;Signal;HPM_P1;HPM_P2
2021/04/20 00:00:41;;;;;;;2.45;2.10;;;;;;;8.71;41.91;94136.19;4998324;28;20033;-82
2021/04/20 00:03:07;;;;;;;2.80;2.15;;;;;;;8.66;42.03;94120.38;5033136;28;20025;-82
2021/04/20 00:05:35;;;;;;;3.35;2.22;;;;;;;8.65;42.22;94122.19;5007291;28;20238;-82
2021/04/20 00:08:01;;;;;;;4.03;2.78;;;;;;;8.64;42.34;94124.97;5005169;28;20138;-82
2021/04/20 00:10:27;;;;;;;2.75;2.20;;;;;;;8.61;41.97;94123.56;5018335;28;20037;-81
2021/04/20 00:12:53;;;;;;;3.50;2.50;;;;;;;8.60;42.74;94120.19;5018167;28;20025;-82
2021/04/20 00:15:21;;;;;;;3.95;3.00;;;;;;;8.49;42.82;94110.34;5017806;28;20041;-81
2021/04/20 00:17:49;;;;;;;2.70;2.10;;;;;;;8.53;42.85;94115.94;5001813;28;20324;-81
2021/04/20 00:20:15;;;;;;;4.40;3.05;;;;;;;8.48;43.17;94105.38;5001194;28;20075;-81
2021/04/20 00:22:41;;;;;;;3.20;2.53;;;;;;;8.43;42.47;94105.13;5001307;28;20029;-81
2021/04/20 00:25:07;;;;;;;3.30;2.45;;;;;;;8.39;42.79;94109.84;4998112;28;20029;-81
2021/04/20 00:27:35;;;;;;;4.85;3.13;;;;;;;8.35;43.15;94104.25;5020336;28;20032;-81
2021/04/20 00:30:03;;;;;;;2.58;2.20;;;;;;;8.32;42.68;94103.84;5017881;28;20065;-81
2021/04/20 00:32:29;;;;;;;2.80;2.28;;;;;;;8.29;42.68;94104.22;5014562;28;20025;-82
2021/04/20 00:35:01;;;;;;;2.90;2.38;;;;;;;8.27;42.50;94111.41;5029247;28;20033;-81
2021/04/20 00:37:27;;;;;;;4.57;2.60;;;;;;;8.24;43.48;94107.38;5005177;28;20017;-81
2021/04/20 00:39:53;;;;;;;3.35;2.30;;;;;;;8.23;43.06;94100.59;4981726;28;20254;-82
2021/04/20 00:42:18;;;;;;;4.00;2.60;;;;;;;8.23;42.79;94095.44;4998010;28;20021;-81
2021/04/20 00:44:44;;;;;;;4.28;2.83;;;;;;;8.20;43.22;94094.00;5030575;28;20029;-82
2021/04/20 00:47:09;;;;;;;3.38;2.55;;;;;;;8.19;43.48;94100.19;4997905;28;20026;-81
2021/04/20 00:49:35;;;;;;;3.20;2.22;;;;;;;8.20;43.51;94098.38;4981812;28;20030;-82
2021/04/20 00:52:03;;;;;;;2.95;2.28;;;;;;;8.17;43.02;94096.19;5016196;28;20046;-81
2021/04/20 00:54:29;;;;;;;3.17;2.40;;;;;;;8.17;43.18;94099.56;5001496;28;20032;-81
2021/04/20 00:56:56;;;;;;;3.40;2.22;;;;;;;8.17;43.18;94097.00;5000839;28;20108;-81
2021/04/20 00:59:25;;;;;;;3.33;2.45;;;;;;;8.11;43.21;94081.41;5018086;28;20030;-81
2021/04/20 01:01:53;;;;;;;3.63;2.70;;;;;;;8.16;43.62;94094.59;5058489;28;20021;-81
2021/04/20 01:04:19;;;;;;;2.85;2.10;;;;;;;8.11;43.08;94090.00;5020098;28;20052;-82
2021/04/20 01:06:48;;;;;;;3.28;2.22;;;;;;;8.10;43.02;94088.38;4999591;28;20107;-81
2021/04/20 01:09:16;;;;;;;3.08;2.20;;;;;;;8.09;42.91;94089.38;5001116;28;20032;-81
2021/04/20 01:11:42;;;;;;;4.07;2.45;;;;;;;8.08;43.36;94084.38;5001079;28;20044;-81
2021/04/20 01:14:10;;;;;;;3.90;2.83;;;;;;;8.05;43.28;94085.53;5016824;28;20025;-81
2021/04/20 01:16:40;;;;;;;3.95;2.70;;;;;;;8.03;42.75;94084.94;5000548;28;20025;-81
2021/04/20 01:19:07;;;;;;;4.15;2.90;;;;;;;7.96;43.38;94078.94;5017297;28;20029;-81
2021/04/20 01:21:37;;;;;;;2.95;2.20;;;;;;;7.95;42.83;94078.13;5016452;28;20029;-81
2021/04/20 01:24:08;;;;;;;3.60;2.60;;;;;;;7.92;42.88;94080.28;5000593;28;20052;-81
2021/04/20 01:26:45;;;;;;;2.65;1.90;;;;;;;7.86;42.98;94081.81;5016427;28;20030;-81
2021/04/20 01:29:10;;;;;;;3.13;2.05;;;;;;;7.83;43.02;94082.22;4984033;28;20029;-82
2021/04/20 01:31:38;;;;;;;3.15;2.10;;;;;;;7.81;42.64;94076.44;4997029;28;20105;-82
2021/04/20 01:34:04;;;;;;;2.65;1.90;;;;;;;7.79;42.90;94078.41;4997368;28;20030;-81
2021/04/20 01:36:30;;;;;;;2.85;1.90;;;;;;;7.76;43.11;94078.78;4980207;28;20036;-81
2021/04/20 01:38:56;;;;;;;4.38;2.80;;;;;;;7.75;43.60;94072.81;5014334;28;20120;-81
2021/04/20 01:41:25;;;;;;;4.50;2.88;;;;;;;7.66;43.56;94068.75;5000637;28;20031;-81
2021/04/20 01:43:52;;;;;;;3.45;2.58;;;;;;;7.71;43.54;94083.72;4996488;28;20040;-81
2021/04/20 01:46:19;;;;;;;2.35;1.80;;;;;;;7.68;43.12;94084.91;4996976;28;20032;-81
2021/04/20 01:48:50;;;;;;;3.47;2.22;;;;;;;7.64;43.41;94083.66;5012981;28;20115;-82
2021/04/20 01:51:18;;;;;;;2.28;2.08;;;;;;;7.61;43.20;94081.44;5000400;28;20075;-81
2021/04/20 01:53:44;;;;;;;2.78;2.05;;;;;;;7.61;43.15;94078.84;5016270;28;20029;-81
2021/04/20 01:56:10;;;;;;;4.10;3.30;;;;;;;7.59;43.32;94083.41;4999612;28;20083;-81
2021/04/20 01:58:39;;;;;;;4.18;3.00;;;;;;;7.59;43.91;94083.41;4996245;28;20057;-81
2021/04/20 02:01:09;;;;;;;3.63;2.20;;;;;;;7.54;43.35;94081.41;5049423;28;20037;-81
2021/04/20 02:03:38;;;;;;;2.80;2.20;;;;;;;7.54;43.42;94085.75;5017673;28;20075;-81
2021/04/20 02:06:10;;;;;;;3.28;2.53;;;;;;;7.51;43.86;94080.97;5015644;28;20029;-81
2021/04/20 02:08:35;;;;;;;3.50;2.38;;;;;;;7.49;44.09;94078.56;5000911;28;20021;-81
2021/04/20 02:11:07;;;;;;;5.32;3.03;;;;;;;7.47;44.58;94072.00;5000037;28;20035;-81
2021/04/20 02:13:33;;;;;;;6.20;3.03;;;;;;;7.40;43.74;94070.13;5000614;28;20029;-81
2021/04/20 02:16:02;;;;;;;3.90;2.67;;;;;;;7.39;43.98;94073.72;5000145;28;20030;-81
2021/04/20 02:18:30;;;;;;;3.60;2.40;;;;;;;7.36;43.83;94068.91;4999032;28;20017;-81
2021/04/20 02:20:57;;;;;;;3.88;2.90;;;;;;;7.37;44.52;94067.94;4999715;28;20043;-81
2021/04/20 02:23:25;;;;;;;5.43;3.53;;;;;;;7.33;44.78;94064.13;4987352;28;20022;-81
2021/04/20 02:25:51;;;;;;;5.45;3.60;;;;;;;7.32;44.81;94072.84;4997890;28;20026;-81
2021/04/20 02:28:17;;;;;;;5.78;3.30;;;;;;;7.30;44.31;94072.22;4999888;28;20025;-81
2021/04/20 02:30:45;;;;;;;3.72;2.60;;;;;;;7.29;44.15;94072.41;5032214;28;20034;-81
2021/04/20 02:33:12;;;;;;;4.38;3.03;;;;;;;7.25;44.85;94071.97;5038542;28;20025;-81
2021/04/20 02:35:38;;;;;;;4.25;3.25;;;;;;;7.28;44.80;94069.03;4998910;28;20053;-81
2021/04/20 02:38:06;;;;;;;4.18;3.00;;;;;;;7.28;44.72;94068.25;4998614;28;20056;-81
2021/04/20 02:40:33;;;;;;;5.88;3.53;;;;;;;7.29;44.66;94062.91;4999278;28;20128;-81
2021/04/20 02:43:06;;;;;;;4.45;3.10;;;;;;;7.27;44.59;94061.47;4999301;28;20044;-81
2021/04/20 02:45:33;;;;;;;4.93;3.70;;;;;;;7.29;45.22;94056.91;5031933;28;20075;-81
2021/04/20 02:47:59;;;;;;;4.30;3.20;;;;;;;7.28;45.00;94058.69;4999662;28;20088;-81
2021/04/20 02:50:28;;;;;;;3.03;2.40;;;;;;;7.27;44.57;94062.25;4981128;28;20048;-81
2021/04/20 02:53:00;;;;;;;3.88;2.78;;;;;;;7.28;44.47;94071.63;4991062;28;20029;-81
2021/04/20 02:55:27;;;;;;;5.65;3.67;;;;;;;7.29;44.86;94069.81;4995966;28;20037;-81
2021/04/20 02:57:54;;;;;;;6.25;3.55;;;;;;;7.26;45.40;94068.44;4996054;28;20164;-81
2021/04/20 03:00:22;;;;;;;5.95;3.70;;;;;;;7.28;44.95;94066.44;5029009;28;20134;-81
2021/04/20 03:02:51;;;;;;;4.30;2.90;;;;;;;7.26;44.67;94071.00;5027868;28;20025;-81
2021/04/20 03:05:20;;;;;;;4.10;2.83;;;;;;;7.27;44.71;94069.22;4994331;28;20036;-81
2021/04/20 03:07:47;;;;;;;5.65;3.25;;;;;;;7.27;44.79;94059.66;5012410;28;20104;-81
2021/04/20 03:10:16;;;;;;;4.72;3.40;;;;;;;7.26;45.08;94052.91;5011731;28;20029;-81
2021/04/20 03:12:44;;;;;;;4.82;2.83;;;;;;;7.27;45.08;94058.88;5011895;28;20046;-81
2021/04/20 03:15:15;;;;;;;4.78;3.25;;;;;;;7.27;44.92;94054.50;4996179;28;20026;-81
2021/04/20 03:17:41;;;;;;;5.15;3.42;;;;;;;7.26;45.43;94052.91;5011346;28;20025;-81
2021/04/20 03:20:10;;;;;;;4.93;3.38;;;;;;;7.26;44.96;94052.91;5013903;28;20030;-81
2021/04/20 03:22:39;;;;;;;5.50;3.90;;;;;;;7.26;44.79;94050.31;5006627;28;20026;-81
2021/04/20 03:25:04;;;;;;;5.40;3.70;;;;;;;7.28;45.05;94055.31;4979773;28;20029;-81
2021/04/20 03:27:30;;;;;;;5.63;3.58;;;;;;;7.26;44.90;94052.91;5016283;28;20029;-81
2021/04/20 03:29:55;;;;;;;4.20;2.88;;;;;;;7.23;44.65;94051.50;4998344;28;20029;-81
2021/04/20 03:32:30;;;;;;;7.32;4.18;;;;;;;7.19;44.92;94042.50;4998568;28;20017;-81
2021/04/20 03:35:10;;;;;;;4.85;3.47;;;;;;;7.22;44.72;94051.69;4994900;28;20034;-81
2021/04/20 03:37:41;;;;;;;4.82;3.30;;;;;;;7.19;45.21;94049.44;4995350;28;20014;-82
2021/04/20 03:40:11;;;;;;;4.45;2.70;;;;;;;7.19;44.72;94052.03;4999670;28;20030;-81
2021/04/20 03:42:43;;;;;;;5.22;3.30;;;;;;;7.18;44.13;94047.88;5000011;28;20026;-81
2021/04/20 03:45:16;;;;;;;7.22;4.47;;;;;;;7.17;45.00;94052.22;4983207;28;20037;-81
2021/04/20 03:47:43;;;;;;;5.22;3.15;;;;;;;7.16;44.33;94052.41;4993998;28;20025;-81
2021/04/20 03:50:18;;;;;;;4.18;2.63;;;;;;;7.16;44.27;94054.97;4982961;28;20028;-81
2021/04/20 03:52:49;;;;;;;3.72;2.60;;;;;;;7.11;44.63;94050.38;4995746;28;20080;-81
2021/04/20 03:55:16;;;;;;;5.20;3.75;;;;;;;7.13;45.24;94048.41;4996882;28;20037;-81
2021/04/20 03:57:45;;;;;;;4.55;3.40;;;;;;;7.11;44.90;94050.38;5002161;28;20137;-81
2021/04/20 04:00:15;;;;;;;6.55;4.18;;;;;;;7.10;45.90;94043.63;5002451;28;20039;-81
2021/04/20 04:02:46;;;;;;;5.30;3.78;;;;;;;7.12;45.58;94048.59;5016869;28;20025;-81
2021/04/20 04:05:16;;;;;;;6.22;4.10;;;;;;;7.11;45.74;94052.97;5002416;28;20036;-81
2021/04/20 04:07:43;;;;;;;5.88;4.10;;;;;;;7.14;45.35;94049.19;4999548;28;20022;-81
2021/04/20 04:10:09;;;;;;;5.55;3.38;;;;;;;7.13;45.44;94050.19;5002265;28;20033;-81
2021/04/20 04:12:37;;;;;;;7.45;4.90;;;;;;;7.14;46.20;94041.44;5002217;28;20026;-81
2021/04/20 04:15:03;;;;;;;5.53;4.10;;;;;;;7.14;45.71;94052.59;5001843;28;20061;-81
2021/04/20 04:17:29;;;;;;;4.22;3.10;;;;;;;7.15;45.71;94056.78;5001386;28;20356;-81
2021/04/20 04:19:54;;;;;;;5.68;3.83;;;;;;;7.18;46.19;94063.38;5001564;28;20044;-81
2021/04/20 04:22:29;;;;;;;6.75;4.50;;;;;;;7.17;45.72;94054.81;5001190;28;20029;-81
2021/04/20 04:24:56;;;;;;;6.75;4.20;;;;;;;7.17;45.56;94046.25;5001406;28;20037;-81
2021/04/20 04:27:25;;;;;;;4.47;2.95;;;;;;;7.19;45.55;94055.41;5003441;28;20030;-81
2021/04/20 04:29:54;;;;;;;5.55;4.00;;;;;;;7.21;45.28;94057.81;4998263;28;20017;-81
2021/04/20 04:32:20;;;;;;;5.95;3.88;;;;;;;7.23;45.91;94053.25;5004052;28;20159;-81
2021/04/20 04:34:49;;;;;;;5.00;3.65;;;;;;;7.26;45.53;94054.69;5034123;28;20321;-81
2021/04/20 04:37:15;;;;;;;5.90;3.58;;;;;;;7.27;46.01;94059.66;5000248;28;20029;-81
2021/04/20 04:39:44;;;;;;;5.05;3.45;;;;;;;7.32;45.90;94067.69;5008885;28;20033;-81
2021/04/20 04:42:11;;;;;;;5.32;3.38;;;;;;;7.34;45.67;94055.34;4999917;28;20036;-80
2021/04/20 04:44:37;;;;;;;5.32;4.07;;;;;;;7.37;46.08;94060.16;5017480;28;20048;-81
2021/04/20 04:47:09;;;;;;;6.82;4.43;;;;;;;7.44;46.29;94060.22;5000102;28;20021;-81
2021/04/20 04:49:37;;;;;;;5.43;3.72;;;;;;;7.47;46.65;94054.66;5000866;28;20063;-81
2021/04/20 04:52:03;;;;;;;8.48;4.93;;;;;;;7.53;47.55;94059.09;5001249;28;20105;-82
2021/04/20 04:54:29;;;;;;;6.70;4.72;;;;;;;7.58;47.75;94055.97;5016762;28;20029;-81
2021/04/20 04:56:57;;;;;;;8.15;5.60;;;;;;;7.62;47.88;94062.34;5016333;28;20029;-81
2021/04/20 04:59:25;;;;;;;5.00;3.50;;;;;;;7.67;47.47;94062.56;5016714;28;20033;-81
2021/04/20 05:01:51;;;;;;;4.75;3.53;;;;;;;7.74;46.82;94073.00;5015740;28;20025;-81
2021/04/20 05:04:17;;;;;;;7.60;3.88;;;;;;;7.81;46.83;94068.66;4998709;28;20030;-82
2021/04/20 05:06:48;;;;;;;8.70;5.57;;;;;;;7.87;47.45;94069.72;5012708;28;20088;-81
2021/04/20 05:09:15;;;;;;;8.02;5.30;;;;;;;7.97;47.72;94072.75;4998755;28;20044;-81
2021/04/20 05:11:43;;;;;;;6.00;4.20;;;;;;;8.02;47.48;94075.59;5014895;28;20065;-82
2021/04/20 05:14:13;;;;;;;6.43;4.35;;;;;;;8.08;47.50;94071.44;5032897;28;20040;-82
2021/04/20 05:16:44;;;;;;;7.68;4.95;;;;;;;8.19;47.36;94073.50;4999887;28;20043;-81
2021/04/20 05:19:12;;;;;;;17.23;9.93;;;;;;;8.23;47.95;94072.91;4997751;28;20034;-82
2021/04/20 05:21:41;;;;;;;17.95;8.98;;;;;;;8.27;47.59;94073.34;5016343;28;20029;-81
2021/04/20 05:24:10;;;;;;;7.80;5.13;;;;;;;8.22;46.92;94071.31;4998034;28;20033;-81
2021/04/20 05:26:35;;;;;;;6.93;4.78;;;;;;;8.22;46.94;94073.09;5016942;28;20045;-81
2021/04/20 05:29:04;;;;;;;5.78;3.80;;;;;;;8.20;47.20;94072.50;4998674;28;20112;-81
2021/04/20 05:31:30;;;;;;;7.82;5.00;;;;;;;8.22;47.04;94071.31;5026965;28;20063;-82
2021/04/20 05:34:02;;;;;;;8.40;5.38;;;;;;;8.26;47.33;94076.91;4996545;28;20069;-82
2021/04/20 05:36:35;;;;;;;6.53;4.70;;;;;;;8.26;46.63;94070.94;4998017;28;20029;-82
2021/04/20 05:39:07;;;;;;;8.88;5.43;;;;;;;8.29;47.28;94067.97;4998580;28;20044;-81
2021/04/20 05:41:38;;;;;;;9.45;5.93;;;;;;;8.35;47.18;94072.38;5016165;28;20017;-81
2021/04/20 05:44:07;;;;;;;8.98;5.70;;;;;;;8.38;47.28;94062.44;4997772;28;20026;-82
2021/04/20 05:46:35;;;;;;;7.53;4.85;;;;;;;8.46;47.46;94065.88;5019889;28;20025;-82
2021/04/20 05:49:01;;;;;;;10.07;6.78;;;;;;;8.51;47.48;94060.91;5013065;28;20060;-82
2021/04/20 05:51:30;;;;;;;7.70;5.28;;;;;;;8.60;47.43;94064.94;5020247;28;20109;-81
2021/04/20 05:53:58;;;;;;;6.45;4.28;;;;;;;8.66;47.44;94064.16;5024640;28;20022;-81
2021/04/20 05:56:26;;;;;;;4.88;3.50;;;;;;;8.70;46.96;94049.00;5020036;28;20097;-82
2021/04/20 05:58:58;;;;;;;6.10;4.38;;;;;;;8.80;47.59;94060.63;5006730;28;20030;-82
2021/04/20 06:01:24;;;;;;;4.18;3.17;;;;;;;8.86;47.00;94048.69;4989893;28;20040;-82
2021/04/20 06:03:52;;;;;;;7.00;4.60;;;;;;;9.00;47.22;94059.88;5008154;28;20029;-81
2021/04/20 06:06:18;;;;;;;6.35;4.20;;;;;;;9.06;47.11;94056.50;5005918;28;20032;-81
2021/04/20 06:08:52;;;;;;;6.30;4.45;;;;;;;9.16;47.13;94058.72;4998382;28;20091;-81
2021/04/20 06:11:20;;;;;;;6.85;4.88;;;;;;;9.30;47.27;94070.72;5009105;28;20030;-81
2021/04/20 06:13:46;;;;;;;7.63;5.07;;;;;;;9.38;47.50;94075.69;4984298;28;20033;-81
2021/04/20 06:16:11;;;;;;;6.63;4.07;;;;;;;9.45;47.39;94070.53;5008987;28;20076;-81
2021/04/20 06:18:38;;;;;;;8.93;5.93;;;;;;;9.55;47.37;94076.13;5023763;28;20040;-81
2021/04/20 06:21:03;;;;;;;9.48;6.65;;;;;;;9.61;48.09;94071.94;4998404;28;20041;-81
2021/04/20 06:23:29;;;;;;;9.07;5.97;;;;;;;9.70;47.63;94070.72;4994362;28;20056;-81
2021/04/20 06:25:58;;;;;;;11.55;8.05;;;;;;;9.81;47.54;94076.34;5037210;28;20107;-81
2021/04/20 06:28:25;;;;;;;11.48;7.38;;;;;;;9.90;47.71;94075.13;4999457;28;20013;-81
2021/04/20 06:30:52;;;;;;;13.70;7.97;;;;;;;9.93;48.05;94075.50;4999533;28;20031;-81
2021/04/20 06:33:18;;;;;;;9.95;5.90;;;;;;;10.08;47.39;94077.91;5031653;28;20116;-82
2021/04/20 06:35:46;;;;;;;9.27;6.30;;;;;;;10.15;47.29;94077.91;5000446;28;20156;-81
2021/04/20 06:38:15;;;;;;;8.75;6.45;;;;;;;10.21;47.44;94077.09;4999590;28;20068;-81
2021/04/20 06:40:45;;;;;;;11.20;7.45;;;;;;;10.33;47.04;94080.69;4990871;28;20108;-82
2021/04/20 06:43:14;;;;;;;12.38;8.82;;;;;;;10.45;47.03;94086.06;4996919;28;20044;-81
2021/04/20 06:45:49;;;;;;;10.07;6.60;;;;;;;10.56;46.89;94085.41;5015406;28;20040;-82
2021/04/20 06:48:36;;;;;;;10.82;6.88;;;;;;;10.66;46.63;94089.38;5028040;28;20037;-81
2021/04/20 06:51:09;;;;;;;9.80;6.82;;;;;;;10.69;46.34;94068.97;5022000;28;20037;-82
2021/04/20 06:53:38;;;;;;;9.70;6.15;;;;;;;10.82;46.21;94080.34;5025842;28;20084;-81
2021/04/20 06:56:20;;;;;;;11.63;8.10;;;;;;;10.90;46.48;94074.88;4992603;28;20021;-81
2021/04/20 06:59:02;;;;;;;8.57;5.63;;;;;;;11.01;45.81;94086.47;4997687;28;20033;-82
2021/04/20 07:01:42;;;;;;;9.40;7.00;;;;;;;11.08;45.74;94079.38;5013768;28;20064;-82
2021/04/20 07:04:30;;;;;;;8.87;5.03;;;;;;;11.12;45.47;94073.59;4997456;28;20045;-82
2021/04/20 07:07:15;;;;;;;10.13;6.22;;;;;;;11.26;45.76;94079.50;5012429;28;20278;-81
2021/04/20 07:16:39;;;;;;;8.00;6.20;;;;;;;11.71;49.62;94065.59;5120067;27;20382;-86
2021/04/20 07:19:36;;;;;;;11.02;7.43;;;;;;;12.34;44.84;94069.84;5053308;28;20098;-84
2021/04/20 07:22:19;;;;;;;9.38;6.88;;;;;;;12.77;44.65;94066.34;5063362;28;20039;-83
2021/04/20 07:25:08;;;;;;;9.88;6.63;;;;;;;13.02;44.17;94068.06;5068709;28;20035;-83
2021/04/20 07:27:40;;;;;;;8.48;6.20;;;;;;;13.14;43.59;94068.13;5068511;28;20048;-85
2021/04/20 07:30:25;;;;;;;12.48;8.43;;;;;;;13.02;43.50;94068.88;5066577;28;20082;-84
2021/04/20 07:33:02;;;;;;;8.55;6.70;;;;;;;13.11;43.33;94064.91;5067768;28;20029;-83
2021/04/20 07:35:33;;;;;;;9.45;6.90;;;;;;;13.09;43.27;94053.13;5066750;28;20122;-83
2021/04/20 07:38:13;;;;;;;12.23;8.63;;;;;;;13.12;43.57;94060.53;5049961;28;20145;-83
2021/04/20 07:40:41;;;;;;;10.90;7.50;;;;;;;13.11;42.78;94059.69;5060942;28;20028;-83
2021/04/20 07:43:11;;;;;;;13.25;8.15;;;;;;;13.16;42.64;94061.66;5068072;28;20031;-84
2021/04/20 07:45:51;;;;;;;10.10;8.00;;;;;;;13.21;42.58;94063.59;5067716;28;20016;-83
2021/04/20 07:48:40;;;;;;;9.30;6.82;;;;;;;13.27;42.08;94065.34;5051389;28;20110;-82
2021/04/20 07:51:28;;;;;;;9.82;7.53;;;;;;;13.23;41.86;94058.94;5067854;28;20242;-83
2021/04/20 07:54:11;;;;;;;12.70;9.32;;;;;;;13.18;41.43;94059.63;5043050;28;20028;-83
2021/04/20 07:56:51;;;;;;;11.05;8.05;;;;;;;13.27;42.56;94063.53;5067719;28;20043;-83
2021/04/20 07:59:19;;;;;;;9.63;6.90;;;;;;;13.31;42.24;94050.84;5042710;28;20024;-84
2021/04/20 08:01:53;;;;;;;10.88;7.60;;;;;;;13.46;42.07;94053.03;5053399;28;20274;-84
2021/04/20 08:04:45;;;;;;;13.65;8.70;;;;;;;13.44;43.36;94052.44;5049792;28;20041;-83
2021/04/20 08:07:21;;;;;;;13.63;8.70;;;;;;;13.56;42.45;94053.28;5076490;28;20036;-83
2021/04/20 08:09:49;;;;;;;9.15;7.20;;;;;;;13.72;40.96;94049.22;5070879;28;20036;-84
2021/04/20 08:12:24;;;;;;;10.55;7.78;;;;;;;13.80;41.51;94051.50;5066614;28;20040;-84
2021/04/20 08:15:03;;;;;;;9.18;6.53;;;;;;;13.95;41.96;94052.88;5040497;28;20087;-84
2021/04/20 08:17:40;;;;;;;8.43;5.97;;;;;;;14.01;40.91;94058.00;5059056;28;20051;-83
2021/04/20 08:20:08;;;;;;;10.90;8.00;;;;;;;14.14;41.26;94050.94;5094726;28;20036;-83
2021/04/20 08:22:34;;;;;;;9.40;6.22;;;;;;;14.26;41.07;94049.94;5083205;28;20027;-84
2021/04/20 08:25:06;;;;;;;7.95;6.05;;;;;;;14.36;41.52;94046.72;5066887;28;20017;-84
2021/04/20 08:27:50;;;;;;;8.35;6.88;;;;;;;14.51;41.35;94046.25;5042972;28;20028;-84
2021/04/20 08:30:36;;;;;;;8.15;6.55;;;;;;;14.71;40.55;94061.59;5059920;28;20055;-83
2021/04/20 08:33:07;;;;;;;11.20;8.18;;;;;;;14.62;40.31;94047.25;5074680;28;20028;-82
2021/04/20 08:35:38;;;;;;;10.75;7.40;;;;;;;14.82;40.65;94049.50;5040059;28;20024;-83
2021/04/20 08:38:29;;;;;;;9.95;7.18;;;;;;;14.89;40.59;94052.78;5067126;28;20060;-83
2021/04/20 08:41:02;;;;;;;9.55;6.88;;;;;;;14.97;39.38;94049.00;5085030;28;20020;-84
2021/04/20 08:43:59;;;;;;;7.25;5.78;;;;;;;15.05;38.17;94046.78;5074792;28;20027;-84
2021/04/20 08:46:47;;;;;;;6.25;4.78;;;;;;;15.12;36.61;94051.91;5072686;28;20052;-85
2021/04/20 08:49:40;;;;;;;6.72;5.03;;;;;;;15.15;37.30;94048.00;5056378;28;20040;-84
2021/04/20 08:52:38;;;;;;;5.03;4.50;;;;;;;15.31;36.59;94043.88;5056438;28;20025;-84
2021/04/20 08:55:10;;;;;;;6.25;5.10;;;;;;;15.42;37.11;94045.59;5041685;28;20027;-83
2021/04/20 08:57:57;;;;;;;4.88;4.32;;;;;;;15.53;35.29;94041.34;5066967;28;20123;-83
2021/04/20 09:00:33;;;;;;;5.65;4.60;;;;;;;15.54;35.76;94037.69;5055486;28;20037;-85
2021/04/20 09:03:04;;;;;;;5.80;4.55;;;;;;;15.64;35.44;94046.50;5053898;28;20108;-84
2021/04/20 09:05:47;;;;;;;5.15;4.40;;;;;;;15.81;34.87;94053.63;5072796;28;20142;-84
2021/04/20 09:08:19;;;;;;;7.72;5.55;;;;;;;15.87;34.11;94041.38;5073120;28;20084;-83
2021/04/20 09:10:51;;;;;;;5.28;4.50;;;;;;;16.03;35.02;94051.09;5071822;28;20020;-84
2021/04/20 09:13:21;;;;;;;6.25;5.18;;;;;;;16.00;35.60;94052.34;5054551;28;20059;-83
2021/04/20 09:15:55;;;;;;;7.47;6.45;;;;;;;16.10;36.00;94049.06;5065850;28;20032;-83
2021/04/20 09:18:22;;;;;;;8.15;6.22;;;;;;;16.15;35.28;94046.53;5054990;28;20105;-84
2021/04/20 09:21:08;;;;;;;7.82;5.68;;;;;;;16.41;35.27;94047.69;5036091;28;20125;-84
2021/04/20 09:24:22;;;;;;;6.85;5.28;;;;;;;16.58;34.94;94046.81;5034382;28;20028;-84
2021/04/20 09:27:13;;;;;;;8.40;6.65;;;;;;;16.87;33.99;94044.03;5036480;28;20067;-85
2021/04/20 09:29:43;;;;;;;7.90;6.35;;;;;;;16.94;35.10;94044.66;5032561;28;20033;-85
2021/04/20 09:32:17;;;;;;;10.88;7.30;;;;;;;17.14;33.81;94037.00;5031605;28;20025;-83
2021/04/20 09:34:43;;;;;;;7.05;5.82;;;;;;;17.25;34.10;94044.97;5020973;28;20025;-85
2021/04/20 09:37:11;;;;;;;8.13;6.82;;;;;;;17.44;33.40;94043.59;5031435;28;20087;-84
2021/04/20 09:39:41;;;;;;;8.35;6.60;;;;;;;17.36;36.01;94042.22;5033496;28;20033;-84
2021/04/20 09:42:07;;;;;;;8.05;6.82;;;;;;;17.59;33.20;94041.13;5038682;28;20083;-84
2021/04/20 09:44:41;;;;;;;8.07;6.35;;;;;;;17.70;33.52;94043.81;5050197;28;20035;-85
2021/04/20 09:47:11;;;;;;;8.00;6.85;;;;;;;17.81;34.19;94037.59;5034238;28;20083;-84
2021/04/20 09:50:30;;;;;;;8.17;6.27;;;;;;;17.87;34.13;94052.41;5049644;28;20098;-84
2021/04/20 09:53:09;;;;;;;7.75;6.88;;;;;;;18.02;33.76;94040.41;4963439;28;20034;-87
2021/04/20 09:55:41;;;;;;;8.40;6.50;;;;;;;18.19;33.91;94043.69;4938864;28;20066;-85
2021/04/20 09:58:07;;;;;;;8.15;6.57;;;;;;;18.29;32.88;94043.72;4954020;28;20065;-86
2021/04/20 10:00:35;;;;;;;10.13;7.38;;;;;;;18.52;32.66;94047.03;4935535;28;20034;-85
2021/04/20 10:03:33;;;;;;;9.70;7.50;;;;;;;18.61;32.42;94048.13;4976562;28;20195;-85
2021/04/20 10:06:18;;;;;;;7.97;6.82;;;;;;;18.66;34.82;94039.47;5005270;28;20025;-87
2021/04/20 10:09:15;;;;;;;11.35;8.10;;;;;;;18.72;33.33;94049.75;4994759;28;20050;-86
2021/04/20 10:11:45;;;;;;;9.13;7.72;;;;;;;18.97;31.48;94047.53;4995603;28;20325;-88
2021/04/20 10:14:34;;;;;;;9.98;8.32;;;;;;;19.05;31.49;94050.44;4993931;28;20049;-86
2021/04/20 10:17:42;;;;;;;7.85;6.20;;;;;;;19.18;32.16;94038.63;5006996;28;20145;-84
2021/04/20 10:20:55;;;;;;;8.70;7.00;;;;;;;19.32;31.54;94033.63;4970728;28;20038;-87
2021/04/20 10:23:47;;;;;;;8.10;6.15;;;;;;;19.38;31.00;94037.88;4930910;29;20171;-85
2021/04/20 10:26:27;;;;;;;8.50;6.20;;;;;;;19.45;32.37;94033.13;4883267;29;20083;-85
2021/04/20 10:29:01;;;;;;;7.45;5.85;;;;;;;19.41;32.27;94021.53;4906442;29;20040;-86
2021/04/20 10:31:55;;;;;;;7.65;6.45;;;;;;;19.65;31.97;94021.81;4876844;29;20064;-86
2021/04/20 10:34:20;;;;;;;10.32;7.60;;;;;;;19.63;31.47;94018.66;4896129;29;20055;-85
2021/04/20 10:36:52;;;;;;;9.25;7.50;;;;;;;19.78;31.57;94011.81;4900923;29;20040;-86
2021/04/20 10:39:25;;;;;;;9.13;7.40;;;;;;;20.01;30.44;94013.94;4888859;29;20072;-86
2021/04/20 10:41:51;;;;;;;8.18;6.53;;;;;;;20.02;30.13;94014.72;4888973;29;20024;-87
2021/04/20 10:44:19;;;;;;;9.73;8.15;;;;;;;20.11;29.53;94013.13;4894952;29;20040;-85
2021/04/20 10:46:49;;;;;;;8.88;7.50;;;;;;;20.24;30.11;94007.28;4901074;29;20048;-87
2021/04/20 10:49:17;;;;;;;9.45;7.72;;;;;;;20.24;30.05;94004.66;4887290;29;20032;-85
2021/04/20 10:51:42;;;;;;;8.00;6.68;;;;;;;20.43;29.81;94009.38;4898723;29;20104;-85
2021/04/20 10:54:11;;;;;;;9.25;7.55;;;;;;;20.49;31.42;93997.72;4909677;29;20072;-85
2021/04/20 10:56:39;;;;;;;8.00;6.75;;;;;;;20.50;29.37;93996.63;4921952;29;20044;-85
2021/04/20 10:59:07;;;;;;;7.75;6.80;;;;;;;20.70;28.98;93995.81;4918590;28;20034;-84
2021/04/20 11:01:36;;;;;;;7.88;6.47;;;;;;;20.92;27.21;93994.66;4923305;28;20051;-86
2021/04/20 11:04:03;;;;;;;7.00;6.25;;;;;;;20.99;26.93;93985.38;5030678;28;20135;-81
2021/04/20 11:06:50;;;;;;;4.75;4.25;;;;;;;21.21;26.42;93992.09;5052708;28;20028;-86
2021/04/20 11:09:15;;;;;;;6.05;4.68;;;;;;;21.23;26.17;93987.38;5052197;28;20029;-86
2021/04/20 11:11:48;;;;;;;6.45;4.95;;;;;;;21.34;25.10;93978.28;5054566;28;20075;-86
2021/04/20 11:14:18;;;;;;;7.00;5.25;;;;;;;21.35;25.17;93977.22;5054218;28;20024;-87
2021/04/20 11:16:49;;;;;;;7.47;5.90;;;;;;;21.33;25.85;93979.34;5054555;28;20043;-86
2021/04/20 11:19:17;;;;;;;6.85;5.55;;;;;;;21.36;23.59;93984.09;5070707;28;20025;-86
2021/04/20 11:21:42;;;;;;;4.70;4.20;;;;;;;21.57;24.67;93979.47;5070520;28;20028;-85
2021/04/20 11:24:20;;;;;;;5.82;5.05;;;;;;;21.83;24.35;93979.25;5054011;28;20016;-87
2021/04/20 11:26:49;;;;;;;5.35;4.40;;;;;;;21.92;25.79;93974.16;5053228;28;20239;-86
2021/04/20 11:29:22;;;;;;;5.63;4.45;;;;;;;22.00;23.93;93973.56;5070989;28;20033;-87
2021/04/20 11:31:49;;;;;;;3.97;3.38;;;;;;;22.17;22.52;93967.81;5071146;28;20029;-86
2021/04/20 11:34:24;;;;;;;4.07;3.65;;;;;;;22.32;23.76;93962.41;5037766;28;20054;-86
2021/04/20 11:37:02;;;;;;;4.35;3.40;;;;;;;22.60;24.53;93967.94;5066710;28;20032;-86
2021/04/20 11:39:31;;;;;;;6.45;5.18;;;;;;;22.86;22.53;93968.38;5054025;28;20036;-85
2021/04/20 11:42:13;;;;;;;4.93;4.43;;;;;;;23.11;23.74;93971.78;5054128;28;20034;-86
2021/04/20 11:44:52;;;;;;;5.32;4.20;;;;;;;23.19;22.23;93964.00;5054870;28;20108;-86
2021/04/20 11:47:17;;;;;;;7.20;5.65;;;;;;;23.27;23.97;93959.13;5047665;28;20036;-85
2021/04/20 11:49:47;;;;;;;6.63;5.55;;;;;;;23.42;23.05;93958.88;5038447;28;20112;-86
2021/04/20 11:52:19;;;;;;;6.90;6.20;;;;;;;23.82;22.55;93954.03;5050119;28;20021;-85
2021/04/20 11:54:46;;;;;;;5.78;4.90;;;;;;;24.45;21.28;93960.59;5042349;28;20261;-86
2021/04/20 11:57:12;;;;;;;5.00;4.50;;;;;;;24.98;20.87;93957.41;5069654;28;20020;-85
2021/04/20 11:59:38;;;;;;;4.65;4.25;;;;;;;25.49;22.80;93950.22;5053078;28;20021;-85
2021/04/20 12:02:03;;;;;;;5.72;5.07;;;;;;;25.82;21.11;93954.50;5052289;28;20027;-86
2021/04/20 12:04:34;;;;;;;5.10;4.60;;;;;;;26.41;19.36;93952.44;5046724;28;20047;-86